createdAt,value
2022-11-30T00:01:23.295Z,71.45
2022-11-30T00:03:54.647Z,71.41
2022-11-30T00:06:24.857Z,71.23
2022-11-30T00:08:56.752Z,71.43
2022-11-30T00:11:26.300Z,71.34
2022-11-30T00:13:53.274Z,71.18
2022-11-30T00:16:20.316Z,71.37
2022-11-30T00:18:47.209Z,71.49
2022-11-30T00:21:15.402Z,71.29
2022-11-30T00:23:45.079Z,71.46
2022-11-30T00:26:15.377Z,71.45
2022-11-30T00:28:43.793Z,71.92
2022-11-30T00:31:14.451Z,71.78
2022-11-30T00:33:41.354Z,71.99
2022-11-30T00:36:15.908Z,71.93
2022-11-30T00:38:43.344Z,72.23
2022-11-30T00:41:11.074Z,71.36
2022-11-30T00:43:37.990Z,71.03
2022-11-30T00:46:05.771Z,71.07
2022-11-30T00:48:32.831Z,70.84
2022-11-30T00:50:59.722Z,70.79
2022-11-30T00:53:26.564Z,70.55
2022-11-30T00:55:53.776Z,70.49
2022-11-30T00:58:20.718Z,70.89
2022-11-30T01:00:47.565Z,70.60
2022-11-30T01:03:14.987Z,70.87
2022-11-30T01:05:43.357Z,71.32
2022-11-30T01:08:11.937Z,71.12
2022-11-30T01:10:42.961Z,70.91
2022-11-30T01:13:14.668Z,70.72
2022-11-30T01:15:44.279Z,70.68
2022-11-30T01:18:11.923Z,71.06
2022-11-30T01:20:44.906Z,71.02
2022-11-30T01:23:11.855Z,70.58
2022-11-30T01:25:40.188Z,70.66
2022-11-30T01:28:09.695Z,70.42
2022-11-30T01:30:36.591Z,70.31
2022-11-30T01:33:04.816Z,70.38
2022-11-30T01:35:31.663Z,70.71
2022-11-30T01:37:58.504Z,70.69
2022-11-30T01:40:25.340Z,70.67
2022-11-30T01:42:52.116Z,70.71
2022-11-30T01:45:18.941Z,70.90
2022-11-30T01:47:53.930Z,70.42
2022-11-30T01:50:34.476Z,70.22
2022-11-30T01:53:03.323Z,70.46
2022-11-30T01:55:37.790Z,70.70
2022-11-30T01:58:11.597Z,71.02
2022-11-30T02:00:45.702Z,70.73
2022-11-30T02:03:24.963Z,71.18
2022-11-30T02:05:51.843Z,71.17
2022-11-30T02:08:19.651Z,71.28
2022-11-30T02:10:53.177Z,71.35
2022-11-30T02:13:50.044Z,71.47
2022-11-30T02:17:08.280Z,71.29
2022-11-30T02:19:58.268Z,71.08
2022-11-30T02:22:54.976Z,71.51
2022-11-30T02:25:52.415Z,71.29
2022-11-30T02:28:44.385Z,71.10
2022-11-30T02:31:18.469Z,71.18
2022-11-30T02:33:47.694Z,71.11
2022-11-30T02:36:14.689Z,71.29
2022-11-30T02:38:42.312Z,71.30
2022-11-30T02:41:09.151Z,71.43
2022-11-30T02:43:36.619Z,71.44
2022-11-30T02:46:22.869Z,71.48
2022-11-30T02:48:55.184Z,71.31
2022-11-30T02:51:25.281Z,71.37
2022-11-30T02:53:52.900Z,71.53
2022-11-30T02:56:22.012Z,71.35
2022-11-30T02:58:48.938Z,71.19
2022-11-30T03:01:16.188Z,71.38
2022-11-30T03:03:43.066Z,71.29
2022-11-30T03:06:09.920Z,70.92
2022-11-30T03:08:36.835Z,70.93
2022-11-30T03:11:04.935Z,70.41
2022-11-30T03:13:34.083Z,70.32
2022-11-30T03:16:09.587Z,69.97
2022-11-30T03:18:36.914Z,70.33
2022-11-30T03:21:12.081Z,70.67
2022-11-30T03:23:39.555Z,70.62
2022-11-30T03:26:08.267Z,70.84
2022-11-30T03:28:36.915Z,71.27
2022-11-30T03:31:04.349Z,70.82
2022-11-30T03:33:31.206Z,71.01
2022-11-30T03:36:07.778Z,70.79
2022-11-30T03:38:35.573Z,70.95
2022-11-30T03:41:14.127Z,70.76
2022-11-30T03:43:41.202Z,70.81
2022-11-30T03:46:09.378Z,70.87
2022-11-30T03:48:36.386Z,70.87
2022-11-30T03:51:05.034Z,70.83
2022-11-30T03:53:32.041Z,71.07
2022-11-30T03:56:02.910Z,70.82
2022-11-30T03:58:30.146Z,70.96
2022-11-30T04:01:19.332Z,70.81
2022-11-30T04:03:46.201Z,71.05
2022-11-30T04:06:13.444Z,71.18
2022-11-30T04:08:41.627Z,71.13
2022-11-30T04:11:08.961Z,71.06
2022-11-30T04:13:37.660Z,71.46
2022-11-30T04:16:05.333Z,71.38
2022-11-30T04:18:34.402Z,71.06
2022-11-30T04:21:01.894Z,71.43
2022-11-30T04:23:36.253Z,71.31
2022-11-30T04:26:05.350Z,71.46
2022-11-30T04:28:32.901Z,71.64
2022-11-30T04:31:00.977Z,71.51
2022-11-30T04:33:28.508Z,71.59
2022-11-30T04:35:59.148Z,72.47
2022-11-30T04:38:27.299Z,72.51
2022-11-30T04:40:54.427Z,72.52
2022-11-30T04:43:21.836Z,72.60
2022-11-30T04:45:49.033Z,72.29
2022-11-30T04:48:17.787Z,72.25
2022-11-30T04:50:44.911Z,72.69
2022-11-30T04:53:12.124Z,72.48
2022-11-30T04:55:39.241Z,72.51
2022-11-30T04:58:07.029Z,71.94
2022-11-30T05:00:35.130Z,71.86
2022-11-30T05:03:02.303Z,72.30
2022-11-30T05:05:29.357Z,72.19
2022-11-30T05:07:58.701Z,72.88
2022-11-30T05:10:27.688Z,72.56
2022-11-30T05:12:54.563Z,72.45
2022-11-30T05:15:21.643Z,72.84
2022-11-30T05:17:48.634Z,72.17
2022-11-30T05:20:15.736Z,72.58
2022-11-30T05:22:42.683Z,72.59
2022-11-30T05:25:09.922Z,72.84
2022-11-30T05:27:37.367Z,72.80
2022-11-30T05:30:06.074Z,72.91
2022-11-30T05:32:33.159Z,72.88
2022-11-30T05:34:59.991Z,72.79
2022-11-30T05:37:27.120Z,72.57
2022-11-30T05:39:53.892Z,72.56
2022-11-30T05:42:21.083Z,72.98
2022-11-30T05:44:48.365Z,72.29
2022-11-30T05:47:16.018Z,72.34
2022-11-30T05:49:43.026Z,72.29
2022-11-30T05:52:09.905Z,72.08
2022-11-30T05:54:36.772Z,72.44
2022-11-30T05:57:05.273Z,72.61
2022-11-30T05:59:32.286Z,72.54
2022-11-30T06:01:59.285Z,72.17
2022-11-30T06:04:26.262Z,72.29
2022-11-30T06:06:55.760Z,72.60
2022-11-30T06:09:23.251Z,72.50
2022-11-30T06:11:50.524Z,72.34
2022-11-30T06:14:17.948Z,72.49
2022-11-30T06:16:45.014Z,72.47
2022-11-30T06:19:12.012Z,72.16
2022-11-30T06:21:38.920Z,72.35
2022-11-30T06:24:06.239Z,72.15
2022-11-30T06:26:33.035Z,72.35
2022-11-30T06:28:59.856Z,72.27
2022-11-30T06:31:26.742Z,72.49
2022-11-30T06:33:57.651Z,72.50
2022-11-30T06:36:24.745Z,72.19
2022-11-30T06:38:52.397Z,72.68
2022-11-30T06:41:19.263Z,72.81
2022-11-30T06:43:46.453Z,72.56
2022-11-30T06:46:13.322Z,71.78
2022-11-30T06:48:40.289Z,72.10
2022-11-30T06:51:09.166Z,71.60
2022-11-30T06:53:36.796Z,71.53
2022-11-30T06:56:10.531Z,72.10
2022-11-30T06:58:39.795Z,72.04
2022-11-30T07:01:11.034Z,72.36
2022-11-30T07:03:38.542Z,72.77
2022-11-30T07:06:13.173Z,72.63
2022-11-30T07:08:40.657Z,72.80
2022-11-30T07:11:09.968Z,72.69
2022-11-30T07:13:37.484Z,72.07
2022-11-30T07:16:07.298Z,72.25
2022-11-30T07:18:35.245Z,71.71
2022-11-30T07:21:04.485Z,72.05
2022-11-30T07:23:55.839Z,71.59
2022-11-30T07:26:24.428Z,71.87
2022-11-30T07:28:55.187Z,71.63
2022-11-30T07:31:28.947Z,71.96
2022-11-30T07:33:58.424Z,71.58
2022-11-30T07:36:27.494Z,71.03
2022-11-30T07:38:54.816Z,71.04
2022-11-30T07:41:22.029Z,70.13
2022-11-30T07:43:48.831Z,69.64
2022-11-30T07:46:17.142Z,70.28
2022-11-30T07:48:45.226Z,70.16
2022-11-30T07:51:22.012Z,70.32
2022-11-30T07:53:49.534Z,70.36
2022-11-30T07:56:19.701Z,69.92
2022-11-30T07:58:47.583Z,69.90
2022-11-30T08:01:21.698Z,69.54
2022-11-30T08:03:50.046Z,69.53
2022-11-30T08:06:22.749Z,69.06
2022-11-30T08:08:51.911Z,69.63
2022-11-30T08:11:23.340Z,69.73
2022-11-30T08:13:50.537Z,70.02
2022-11-30T08:16:21.147Z,70.04
2022-11-30T08:18:48.573Z,69.77
2022-11-30T08:21:19.257Z,69.40
2022-11-30T08:23:51.527Z,69.16
2022-11-30T08:26:23.060Z,68.61
2022-11-30T08:28:51.547Z,68.50
2022-11-30T08:31:37.410Z,69.50
2022-11-30T08:34:09.867Z,69.13
2022-11-30T08:36:36.846Z,68.17
2022-11-30T08:39:06.060Z,68.94
2022-11-30T08:41:35.228Z,68.65
2022-11-30T08:44:02.350Z,69.15
2022-11-30T08:49:24.462Z,68.98
2022-11-30T08:54:45.394Z,68.06
2022-11-30T08:57:12.862Z,68.04
2022-11-30T08:59:39.753Z,67.72
2022-11-30T09:02:06.717Z,67.06
2022-11-30T09:04:33.661Z,67.44
2022-11-30T09:07:00.969Z,67.25
2022-11-30T09:09:28.024Z,67.94
2022-11-30T09:11:55.073Z,67.99
2022-11-30T09:14:21.921Z,67.88
2022-11-30T09:16:49.052Z,67.53
2022-11-30T09:19:16.001Z,67.03
2022-11-30T09:21:49.611Z,66.37
2022-11-30T09:24:18.452Z,66.60
2022-11-30T09:26:45.317Z,66.74
2022-11-30T09:29:12.113Z,66.81
2022-11-30T09:31:39.084Z,67.04
2022-11-30T09:34:05.892Z,67.15
2022-11-30T09:36:34.043Z,67.20
2022-11-30T09:39:01.268Z,66.92
2022-11-30T09:41:34.315Z,66.39
2022-11-30T09:44:22.956Z,66.64
2022-11-30T09:47:27.588Z,66.59
2022-11-30T09:50:02.709Z,67.11
2022-11-30T09:52:42.080Z,66.63
2022-11-30T09:55:13.302Z,66.47
2022-11-30T09:57:40.029Z,66.03
2022-11-30T10:00:15.196Z,66.26
2022-11-30T10:02:43.046Z,66.29
2022-11-30T10:05:29.513Z,66.01
2022-11-30T10:08:33.053Z,65.67
2022-11-30T10:11:09.763Z,66.36
2022-11-30T10:14:12.715Z,65.55
2022-11-30T10:17:06.528Z,66.36
2022-11-30T10:20:16.983Z,66.71
2022-11-30T10:23:04.660Z,65.35
2022-11-30T10:25:57.173Z,64.85
2022-11-30T10:28:47.768Z,64.33
2022-11-30T10:31:16.471Z,65.11
2022-11-30T10:33:47.325Z,63.86
2022-11-30T10:36:39.912Z,64.05
2022-11-30T10:39:25.026Z,65.06
2022-11-30T10:42:21.656Z,64.42
2022-11-30T10:45:18.807Z,63.85
2022-11-30T10:48:02.340Z,63.75
2022-11-30T10:50:31.461Z,63.57
2022-11-30T10:53:00.875Z,64.05
2022-11-30T10:55:36.418Z,64.44
2022-11-30T10:58:29.368Z,64.26
2022-11-30T11:01:06.829Z,63.55
2022-11-30T11:03:34.612Z,63.84
2022-11-30T11:06:23.301Z,62.81
2022-11-30T11:08:51.067Z,62.81
2022-11-30T11:11:38.650Z,63.46
2022-11-30T11:14:18.571Z,64.64
2022-11-30T11:17:04.196Z,63.94
2022-11-30T11:19:36.821Z,63.03
2022-11-30T11:22:25.932Z,62.00
2022-11-30T11:25:23.784Z,61.87
2022-11-30T11:27:54.324Z,62.16
2022-11-30T11:30:27.175Z,62.81
2022-11-30T11:33:13.408Z,62.65
2022-11-30T11:35:41.754Z,62.83
2022-11-30T11:38:23.170Z,62.29
2022-11-30T11:41:05.845Z,61.40
2022-11-30T11:43:41.140Z,61.99
2022-11-30T11:46:14.713Z,61.74
2022-11-30T11:48:49.137Z,62.40
2022-11-30T11:51:39.797Z,62.95
2022-11-30T11:54:18.236Z,64.18
2022-11-30T11:56:45.131Z,63.31
2022-11-30T11:59:47.843Z,63.78
2022-11-30T12:02:34.955Z,64.03
2022-11-30T12:05:13.213Z,64.25
2022-11-30T12:08:01.534Z,64.59
2022-11-30T12:10:54.614Z,64.85
2022-11-30T12:13:38.203Z,64.75
2022-11-30T12:16:43.338Z,64.44
2022-11-30T12:19:24.853Z,65.07
2022-11-30T12:22:09.642Z,64.50
2022-11-30T12:24:42.490Z,64.60
2022-11-30T12:27:54.530Z,65.15
2022-11-30T12:30:46.466Z,65.48
2022-11-30T12:33:30.407Z,64.76
2022-11-30T12:36:25.133Z,64.69
2022-11-30T12:39:08.216Z,65.08
2022-11-30T12:41:47.054Z,64.70
2022-11-30T12:44:35.522Z,65.05
2022-11-30T12:47:29.384Z,65.01
2022-11-30T12:50:14.123Z,64.96
2022-11-30T12:52:55.243Z,65.25
2022-11-30T12:55:44.544Z,65.14
2022-11-30T12:58:44.127Z,64.30
2022-11-30T13:01:31.764Z,64.20
2022-11-30T13:04:18.461Z,63.67
2022-11-30T13:06:53.824Z,62.88
2022-11-30T13:09:34.932Z,62.55
2022-11-30T13:12:17.386Z,62.78
2022-11-30T13:14:44.770Z,62.67
2022-11-30T13:17:19.371Z,62.03
2022-11-30T13:20:28.387Z,62.67
2022-11-30T13:23:15.049Z,62.89
2022-11-30T13:26:12.699Z,62.90
2022-11-30T13:28:42.312Z,62.43
2022-11-30T13:31:39.868Z,62.25
2022-11-30T13:34:28.332Z,62.14
2022-11-30T13:37:23.111Z,63.28
2022-11-30T13:39:56.049Z,63.82
2022-11-30T13:42:47.369Z,62.95
2022-11-30T13:45:36.429Z,62.90
2022-11-30T13:48:38.775Z,62.38
2022-11-30T13:51:06.533Z,62.22
2022-11-30T13:53:38.941Z,61.95
2022-11-30T13:56:33.695Z,62.67
2022-11-30T13:59:25.288Z,63.36
2022-11-30T14:02:13.676Z,62.75
2022-11-30T14:04:46.402Z,63.21
2022-11-30T14:07:37.719Z,64.39
2022-11-30T14:10:37.832Z,63.51
2022-11-30T14:13:24.180Z,63.97
2022-11-30T14:15:55.364Z,63.62
2022-11-30T14:18:42.431Z,63.51
2022-11-30T14:21:34.880Z,63.36
2022-11-30T14:24:12.190Z,63.06
2022-11-30T14:26:44.971Z,63.19
2022-11-30T14:29:32.158Z,62.88
2022-11-30T14:32:10.808Z,63.72
2022-11-30T14:34:50.238Z,62.97
2022-11-30T14:37:39.995Z,62.83
2022-11-30T14:40:08.023Z,62.19
2022-11-30T14:42:35.878Z,63.00
2022-11-30T14:45:03.438Z,62.80
2022-11-30T14:47:35.788Z,63.92
2022-11-30T14:50:08.071Z,63.50
2022-11-30T14:53:14.951Z,64.12
2022-11-30T14:56:08.540Z,63.97
2022-11-30T14:59:26.531Z,64.88
2022-11-30T15:02:03.950Z,64.36
2022-11-30T15:04:31.691Z,64.03
2022-11-30T15:06:59.328Z,64.56
2022-11-30T15:09:31.082Z,64.34
2022-11-30T15:11:58.813Z,64.25
2022-11-30T15:14:25.713Z,63.80
2022-11-30T15:16:55.678Z,64.19
2022-11-30T15:19:34.406Z,64.74
2022-11-30T15:22:01.441Z,64.38
2022-11-30T15:24:29.744Z,64.44
2022-11-30T15:27:10.261Z,63.94
2022-11-30T15:29:43.343Z,63.67
2022-11-30T15:32:20.310Z,63.43
2022-11-30T15:34:57.587Z,64.03
2022-11-30T15:37:39.047Z,64.24
2022-11-30T15:40:10.792Z,64.38
2022-11-30T15:42:40.308Z,64.82
2022-11-30T15:45:21.655Z,64.91
2022-11-30T15:47:49.268Z,64.83
2022-11-30T15:50:28.393Z,64.34
2022-11-30T15:53:29.727Z,64.32
2022-11-30T15:56:05.824Z,64.28
2022-11-30T15:58:48.236Z,64.25
2022-11-30T16:01:24.587Z,64.78
2022-11-30T16:04:05.545Z,64.66
2022-11-30T16:06:36.895Z,64.90
2022-11-30T16:09:20.510Z,65.07
2022-11-30T16:11:53.843Z,65.09
2022-11-30T16:14:20.714Z,64.77
2022-11-30T16:16:47.995Z,65.42
2022-11-30T16:19:14.949Z,65.53
2022-11-30T16:21:42.222Z,65.61
2022-11-30T16:24:14.358Z,65.55
2022-11-30T16:26:57.144Z,65.54
2022-11-30T16:29:23.900Z,65.35
2022-11-30T16:31:50.788Z,65.25
2022-11-30T16:34:17.708Z,65.17
2022-11-30T16:36:44.533Z,65.34
2022-11-30T16:39:12.870Z,65.46
2022-11-30T16:41:39.971Z,65.46
2022-11-30T16:44:14.150Z,65.73
2022-11-30T16:46:41.139Z,66.06
2022-11-30T16:49:08.664Z,65.97
2022-11-30T16:51:36.100Z,66.44
2022-11-30T16:54:03.803Z,66.12
2022-11-30T16:56:30.803Z,65.83
2022-11-30T16:58:57.581Z,65.49
2022-11-30T17:01:38.740Z,65.86
2022-11-30T17:04:26.485Z,66.11
2022-11-30T17:07:00.515Z,66.61
2022-11-30T17:09:30.301Z,67.51
2022-11-30T17:11:57.336Z,67.34
2022-11-30T17:14:24.203Z,67.46
2022-11-30T17:16:51.066Z,67.52
2022-11-30T17:19:18.200Z,67.69
2022-11-30T17:21:45.099Z,67.31
2022-11-30T17:24:12.341Z,67.35
2022-11-30T17:26:39.169Z,67.59
2022-11-30T17:29:06.570Z,67.58
2022-11-30T17:31:33.597Z,67.68
2022-11-30T17:34:00.517Z,67.27
2022-11-30T17:36:29.253Z,67.75
2022-11-30T17:38:56.674Z,67.69
2022-11-30T17:41:23.790Z,67.95
2022-11-30T17:43:51.972Z,67.82
2022-11-30T17:46:19.102Z,67.87
2022-11-30T17:48:46.544Z,67.31
2022-11-30T17:51:14.111Z,67.88
2022-11-30T17:53:42.820Z,68.28
2022-11-30T17:56:18.747Z,68.12
2022-11-30T17:58:47.226Z,67.82
2022-11-30T18:01:24.764Z,67.83
2022-11-30T18:03:52.991Z,67.81
2022-11-30T18:06:20.577Z,67.46
2022-11-30T18:08:47.489Z,67.38
2022-11-30T18:11:25.544Z,67.58
2022-11-30T18:13:55.699Z,67.79
2022-11-30T18:16:24.928Z,67.96
2022-11-30T18:18:52.794Z,67.98
2022-11-30T18:21:22.805Z,67.61
2022-11-30T18:23:50.687Z,67.59
2022-11-30T18:26:23.925Z,68.04
2022-11-30T18:28:56.855Z,68.10
2022-11-30T18:31:24.769Z,67.89
2022-11-30T18:33:56.975Z,67.71
2022-11-30T18:36:24.100Z,68.29
2022-11-30T18:38:50.979Z,68.41
2022-11-30T18:41:17.867Z,68.18
2022-11-30T18:43:44.855Z,68.39
2022-11-30T18:46:13.272Z,68.42
2022-11-30T18:48:41.449Z,68.51
2022-11-30T18:51:19.807Z,68.65
2022-11-30T18:53:46.963Z,68.65
2022-11-30T18:56:20.009Z,68.84
2022-11-30T18:58:48.214Z,68.65
2022-11-30T19:01:20.533Z,68.77
2022-11-30T19:03:59.087Z,68.64
2022-11-30T19:06:32.614Z,68.92
2022-11-30T19:09:08.458Z,68.57
2022-11-30T19:11:36.600Z,68.88
2022-11-30T19:14:04.365Z,68.82
2022-11-30T19:16:34.537Z,68.68
2022-11-30T19:19:05.614Z,68.97
2022-11-30T19:21:33.235Z,69.24
2022-11-30T19:24:00.481Z,69.26
2022-11-30T19:26:30.159Z,69.54
2022-11-30T19:28:57.856Z,70.46
2022-11-30T19:31:26.535Z,70.59
2022-11-30T19:33:55.378Z,70.43
2022-11-30T19:36:28.975Z,71.16
2022-11-30T19:38:58.610Z,70.82
2022-11-30T19:41:25.937Z,70.88
2022-11-30T19:44:04.165Z,71.11
2022-11-30T19:46:33.084Z,71.13
2022-11-30T19:49:01.637Z,71.10
2022-11-30T19:51:30.303Z,71.33
2022-11-30T19:53:57.554Z,71.41
2022-11-30T19:56:25.859Z,71.35
2022-11-30T19:58:53.015Z,71.21
2022-11-30T20:01:25.725Z,70.91
2022-11-30T20:03:55.357Z,71.04
2022-11-30T20:06:28.301Z,70.85
2022-11-30T20:08:58.066Z,70.76
2022-11-30T20:11:25.399Z,70.40
2022-11-30T20:13:52.446Z,70.69
2022-11-30T20:16:22.363Z,70.61
2022-11-30T20:18:56.108Z,70.17
2022-11-30T20:21:26.110Z,70.09
2022-11-30T20:23:58.291Z,70.35
2022-11-30T20:26:35.696Z,70.75
2022-11-30T20:29:05.309Z,70.99
2022-11-30T20:31:36.004Z,71.22
2022-11-30T20:34:03.337Z,71.62
2022-11-30T20:36:30.199Z,71.42
2022-11-30T20:38:59.138Z,71.54
2022-11-30T20:41:26.966Z,71.75
2022-11-30T20:43:54.401Z,71.86
2022-11-30T20:46:31.042Z,72.10
2022-11-30T20:48:59.605Z,71.89
2022-11-30T20:51:33.650Z,71.68
2022-11-30T20:54:05.876Z,71.42
2022-11-30T20:56:35.340Z,71.50
2022-11-30T20:59:06.203Z,71.90
2022-11-30T21:01:33.532Z,72.27
2022-11-30T21:04:00.807Z,71.98
2022-11-30T21:06:30.750Z,71.70
2022-11-30T21:08:58.901Z,71.54
2022-11-30T21:11:27.596Z,71.28
2022-11-30T21:13:55.083Z,71.19
2022-11-30T21:16:28.179Z,71.13
2022-11-30T21:18:58.302Z,70.96
2022-11-30T21:21:30.434Z,71.52
2022-11-30T21:24:07.588Z,71.43
2022-11-30T21:26:40.251Z,70.85
2022-11-30T21:29:19.123Z,70.79
2022-11-30T21:31:46.449Z,70.68
2022-11-30T21:34:13.492Z,71.24
2022-11-30T21:36:40.631Z,71.22
2022-11-30T21:39:08.335Z,71.26
2022-11-30T21:41:38.469Z,70.92
2022-11-30T21:44:07.830Z,70.97
2022-11-30T21:46:34.774Z,70.64
2022-11-30T21:49:02.300Z,70.54
2022-11-30T21:51:31.792Z,70.87
2022-11-30T21:54:02.836Z,70.87
2022-11-30T21:56:33.277Z,70.79
2022-11-30T21:59:00.882Z,71.36
2022-11-30T22:01:40.185Z,70.94
2022-11-30T22:04:09.235Z,71.68
2022-11-30T22:06:38.308Z,71.21
2022-11-30T22:09:11.817Z,71.50
2022-11-30T22:11:41.207Z,72.05
2022-11-30T22:14:12.754Z,72.06
2022-11-30T22:16:39.704Z,72.18
2022-11-30T22:19:07.289Z,72.25
2022-11-30T22:21:34.733Z,72.37
2022-11-30T22:24:08.033Z,72.08
2022-11-30T22:26:38.689Z,72.39
2022-11-30T22:29:11.993Z,72.31
2022-11-30T22:31:42.509Z,72.73
2022-11-30T22:34:10.105Z,72.63
2022-11-30T22:36:40.423Z,72.54
2022-11-30T22:39:12.754Z,72.27
2022-11-30T22:41:41.802Z,72.84
2022-11-30T22:44:13.139Z,72.38
2022-11-30T22:46:40.807Z,72.56
2022-11-30T22:49:10.349Z,72.66
2022-11-30T22:51:38.106Z,72.38
2022-11-30T22:54:05.744Z,72.19
2022-11-30T22:56:37.402Z,71.99
2022-11-30T22:59:06.281Z,72.45
2022-11-30T23:01:37.110Z,72.27
2022-11-30T23:04:14.093Z,72.07
2022-11-30T23:06:42.436Z,72.23
2022-11-30T23:09:14.978Z,72.60
2022-11-30T23:11:42.093Z,72.40
2022-11-30T23:14:09.799Z,72.09
2022-11-30T23:16:37.727Z,72.40
2022-11-30T23:19:05.841Z,71.97
2022-11-30T23:21:41.602Z,72.49
2022-11-30T23:24:14.434Z,72.04
2022-11-30T23:26:42.646Z,72.13
2022-11-30T23:29:13.135Z,72.13
2022-11-30T23:31:42.055Z,72.27
2022-11-30T23:34:13.648Z,72.41
2022-11-30T23:36:40.638Z,72.63
2022-11-30T23:39:17.242Z,72.53
2022-11-30T23:41:44.640Z,72.26
2022-11-30T23:44:11.546Z,72.33
2022-11-30T23:46:38.814Z,72.41
2022-11-30T23:49:06.611Z,72.55
2022-11-30T23:51:33.432Z,72.00
2022-11-30T23:54:00.341Z,71.99
2022-11-30T23:56:27.344Z,72.61
2022-11-30T23:58:54.123Z,72.92
